Inukjuak Airport
CYPH : rendu visible

Aérodrome :











RETROUVEZ-NOUS SUR...

 
LOGIN :

S'inscrire | Disclaimer

   EN    FR    IT 

 









Légende :    VFR   VFR Marginal   IFR   IFR Intensif   IFR Très Intensif
Visi : 
Plafond : 
>= 8 km
>= 3000ft
5 à 8 km
1000 à 3000 ft
1500m à 5 km
500 à 1000 ft
800 à 1500m
200 à 500 ft
< 800m
< 200 ft
Symboles :   Orages  Brouillard  Fortes neiges  Fortes précipitations  Vent > 20 kt






- Altitude de l'aérodrome : 83 ft
- Code IATA : YPH


CYPH - Inukjuak

DERNIER METAR :
  • 280200Z AUTO 05009KT 9SM BKN065 BKN078 OVC092 03/01 A2981 RMK SLP099

METARs EXPIRÉS :
  • 280100Z AUTO 06011KT 9SM FEW048 OVC065 03/01 A2981 RMK SLP096
  • 280000Z AUTO 06011KT 9SM OVC050 04/02 A2981 RMK SLP097

TAF TAF CYPH
Valide du 28 à 00h jusqu'au 28 à 12h UTC


272330Z 2800/2812 06010KT P6SM SCT050 BKN070
TEMPO 2800/2802 5SM -RA BR OVC050
FM280200 06010KT P6SM SCT020 BKN050
TEMPO 2802/2812 BKN020 OVC050 RMK FCST BASED ON AUTO OBS. NXT FCST BY 280600Z
FIR CZUL / Amérique du Nord



MET'MAP, la Météo Aéronautique d'un coup d'oeil ! - Copyright ORBIFLY Décembre 2007 - Disclaimer

ORBIFLY MET'MAP TEAM :

Programmation & Développement : Alexandra Zaïnal
Sur une idée originale de : Baudouin d'Aumeries
Assistance à la programmation : Marc-Olivier Méhu
Soutien technique & logistique : Manuel Goepfert

Contact : metmap@orbifly.com




SOURCES & CREDITS :

   NOAA       Earth
Advisory